createdAt,value
2022-10-19T00:02:15.725Z,15
2022-10-19T00:05:03.163Z,12.5
2022-10-19T00:07:52.341Z,13.2
2022-10-19T00:10:40.149Z,13.3
2022-10-19T00:13:27.581Z,11.4
2022-10-19T00:16:14.965Z,11.4
2022-10-19T00:19:02.985Z,11.9
2022-10-19T00:21:54.256Z,13.2
2022-10-19T00:24:41.662Z,10.9
2022-10-19T00:27:29.413Z,11.8
2022-10-19T00:30:17.340Z,14.3
2022-10-19T00:33:04.814Z,11.1
2022-10-19T00:35:52.877Z,11.5
2022-10-19T00:38:40.350Z,10
2022-10-19T00:41:27.993Z,11.3
2022-10-19T00:44:17.248Z,10.5
2022-10-19T00:47:43.763Z,10.3
2022-10-19T00:50:31.237Z,10
2022-10-19T00:53:18.604Z,11.2
2022-10-19T00:56:07.145Z,11.3
2022-10-19T00:58:59.374Z,10.2
2022-10-19T01:01:49.301Z,11.7
2022-10-19T01:04:38.138Z,10.5
2022-10-19T01:07:30.942Z,10.6
2022-10-19T01:10:18.614Z,10.6
2022-10-19T01:13:14.922Z,9.5
2022-10-19T01:16:15.974Z,9.3
2022-10-19T01:19:09.721Z,10.3
2022-10-19T01:22:14.175Z,9.3
2022-10-19T01:25:16.291Z,9.4
2022-10-19T01:28:08.228Z,8.7
2022-10-19T01:31:09.658Z,9.6
2022-10-19T01:34:09.198Z,8.2
2022-10-19T01:37:02.557Z,9.4
2022-10-19T01:40:01.429Z,7.7
2022-10-19T01:42:55.981Z,9.2
2022-10-19T01:45:47.810Z,8.9
2022-10-19T01:48:39.926Z,8.3
2022-10-19T01:51:32.226Z,8.1
2022-10-19T01:54:25.006Z,8.7
2022-10-19T01:57:15.931Z,7.5
2022-10-19T02:00:09.694Z,8.8
2022-10-19T02:02:59.970Z,8
2022-10-19T02:05:51.530Z,7.7
2022-10-19T02:08:40.174Z,8.4
2022-10-19T02:11:31.981Z,8.1
2022-10-19T02:14:22.335Z,6.9
2022-10-19T02:17:13.759Z,8.4
2022-10-19T02:20:05.579Z,9.2
2022-10-19T02:22:54.146Z,7.4
2022-10-19T02:25:42.206Z,6.6
2022-10-19T02:28:29.815Z,6.3
2022-10-19T02:31:17.684Z,7.4
2022-10-19T02:34:05.186Z,7.2
2022-10-19T02:36:53.373Z,7
2022-10-19T02:39:41.121Z,5.6
2022-10-19T02:42:28.526Z,7.3
2022-10-19T02:45:22.289Z,6
2022-10-19T02:48:13.237Z,6
2022-10-19T02:51:05.318Z,6.1
2022-10-19T02:54:12.422Z,6.1
2022-10-19T02:56:59.673Z,7.4
2022-10-19T02:59:49.509Z,5.6
2022-10-19T03:02:37.635Z,6.7
2022-10-19T03:05:24.968Z,6.3
2022-10-19T03:08:12.294Z,5.6
2022-10-19T03:10:59.731Z,5.4
2022-10-19T03:16:35.466Z,6.4
2022-10-19T03:19:22.767Z,5.9
2022-10-19T03:22:10.288Z,6.2
2022-10-19T03:24:59.091Z,5.4
2022-10-19T03:27:46.892Z,5.6
2022-10-19T03:30:34.419Z,5.6
2022-10-19T03:33:21.823Z,4.8
2022-10-19T03:36:09.910Z,5.6
2022-10-19T03:39:01.715Z,6.1
2022-10-19T03:41:51.780Z,5
2022-10-19T03:44:39.120Z,5.4
2022-10-19T03:47:27.299Z,4.6
2022-10-19T03:50:14.593Z,4.6
2022-10-19T03:55:51.078Z,4.9
2022-10-19T03:58:38.336Z,4.7
2022-10-19T04:01:27.290Z,4.8
2022-10-19T04:04:16.953Z,4.4
2022-10-19T04:07:05.762Z,4
2022-10-19T04:09:53.636Z,4.3
2022-10-19T04:12:41.071Z,4.2
2022-10-19T04:15:28.373Z,4.1
2022-10-19T04:18:15.685Z,3.9
2022-10-19T04:21:02.908Z,4.2
2022-10-19T04:23:51.854Z,4.3
2022-10-19T04:26:44.756Z,4.2
2022-10-19T04:29:33.625Z,3.9
2022-10-19T04:32:20.946Z,4.3
2022-10-19T04:35:08.388Z,3.8
2022-10-19T04:37:55.561Z,3.9
2022-10-19T04:40:44.096Z,3.6
2022-10-19T04:43:31.382Z,3.9
2022-10-19T04:46:19.281Z,5
2022-10-19T04:49:07.014Z,4.1
2022-10-19T04:51:54.708Z,3.5
2022-10-19T04:54:42.028Z,3.5
2022-10-19T04:57:29.319Z,3.4
2022-10-19T05:00:16.632Z,3.2
2022-10-19T05:03:04.150Z,3.8
2022-10-19T05:05:52.478Z,3.7
2022-10-19T05:08:39.863Z,4.2
2022-10-19T05:11:27.355Z,3
2022-10-19T05:14:14.838Z,3.5
2022-10-19T05:17:02.368Z,3.4
2022-10-19T05:19:49.682Z,3.3
2022-10-19T05:22:37.015Z,3.2
2022-10-19T05:25:25.231Z,3
2022-10-19T05:28:12.515Z,2.9
2022-10-19T05:31:00.015Z,3.3
2022-10-19T05:33:55.109Z,3.6
2022-10-19T05:36:43.555Z,3.1
2022-10-19T05:39:30.910Z,2.8
2022-10-19T05:42:18.539Z,2.7
2022-10-19T05:45:08.992Z,2.8
2022-10-19T05:47:56.439Z,3.1
2022-10-19T05:50:44.391Z,3
2022-10-19T05:56:26.561Z,3.3
2022-10-19T05:59:15.430Z,3.2
2022-10-19T06:02:05.466Z,3.3
2022-10-19T06:04:58.724Z,2.8
2022-10-19T06:07:46.149Z,3.1
2022-10-19T06:10:33.523Z,3.1
2022-10-19T06:13:20.900Z,3.8
2022-10-19T06:16:08.344Z,2.9
2022-10-19T06:18:57.495Z,3.4
2022-10-19T06:21:45.905Z,4
2022-10-19T06:24:33.528Z,3.1
2022-10-19T06:27:20.994Z,3
2022-10-19T06:30:08.641Z,3.1
2022-10-19T06:32:56.989Z,3.1
2022-10-19T06:35:44.458Z,2.7
2022-10-19T06:38:31.934Z,2.8
2022-10-19T06:41:19.332Z,2.9
2022-10-19T06:44:07.096Z,2.4
2022-10-19T06:46:54.944Z,2.7
2022-10-19T06:49:42.240Z,2.7
2022-10-19T06:52:29.684Z,2.7
2022-10-19T06:55:17.368Z,2.5
2022-10-19T06:58:04.966Z,2.2
2022-10-19T07:00:53.392Z,2.1
2022-10-19T07:03:42.038Z,2.1
2022-10-19T07:06:29.450Z,2.2
2022-10-19T07:09:17.408Z,2.1
2022-10-19T07:12:04.980Z,2.5
2022-10-19T07:14:55.311Z,2
2022-10-19T07:17:42.843Z,2.3
2022-10-19T07:20:30.160Z,1.9
2022-10-19T07:23:17.460Z,2.7
2022-10-19T07:26:04.989Z,2.8
2022-10-19T07:28:56.898Z,2
2022-10-19T07:31:44.401Z,2.4
2022-10-19T07:34:31.952Z,2.6
2022-10-19T07:37:19.239Z,2.6
2022-10-19T07:40:07.055Z,2.7
2022-10-19T07:42:56.004Z,2.4
2022-10-19T07:45:43.375Z,2.4
2022-10-19T07:48:30.688Z,2.5
2022-10-19T07:51:18.910Z,2.8
2022-10-19T07:54:07.502Z,2.7
2022-10-19T07:56:54.914Z,2.2
2022-10-19T07:59:42.371Z,2.3
2022-10-19T08:02:39.430Z,2.5
2022-10-19T08:05:47.559Z,2.3
2022-10-19T08:08:35.047Z,2.8
2022-10-19T08:11:23.090Z,2.1
2022-10-19T08:14:12.879Z,2.6
2022-10-19T08:17:00.250Z,2.5
2022-10-19T08:19:48.220Z,3.1
2022-10-19T08:22:36.313Z,1.8
2022-10-19T08:25:26.450Z,3.4
2022-10-19T08:28:13.898Z,2.5
2022-10-19T08:31:01.591Z,1.9
2022-10-19T08:33:55.254Z,2.1
2022-10-19T08:36:42.725Z,2.2
2022-10-19T08:39:30.473Z,2.4
2022-10-19T08:42:17.990Z,2
2022-10-19T08:45:09.794Z,2.3
2022-10-19T08:48:14.891Z,2.1
2022-10-19T08:51:13.448Z,2.3
2022-10-19T08:54:00.951Z,2
2022-10-19T08:56:56.774Z,2.2
2022-10-19T08:59:56.462Z,1.9
2022-10-19T09:02:51.636Z,2.1
2022-10-19T09:05:50.560Z,2
2022-10-19T09:08:46.014Z,1.9
2022-10-19T09:11:35.426Z,2.5
2022-10-19T09:14:28.007Z,1.9
2022-10-19T09:17:18.246Z,1.9
2022-10-19T09:20:06.098Z,2.5
2022-10-19T09:23:02.336Z,2.2
2022-10-19T09:25:57.880Z,2.2
2022-10-19T09:28:45.486Z,2
2022-10-19T09:31:40.513Z,2.3
2022-10-19T09:34:29.384Z,2.5
2022-10-19T09:37:25.748Z,2
2022-10-19T09:40:14.814Z,3
2022-10-19T09:43:05.254Z,2.1
2022-10-19T09:46:09.624Z,2.4
2022-10-19T09:49:15.799Z,2.5
2022-10-19T09:52:03.315Z,2.3
2022-10-19T09:55:07.344Z,2.5
2022-10-19T09:58:10.225Z,2.1
2022-10-19T10:01:04.036Z,2
2022-10-19T10:04:13.199Z,2.2
2022-10-19T10:07:02.878Z,2.3
2022-10-19T10:09:50.428Z,2.1
2022-10-19T10:12:38.273Z,2.3
2022-10-19T10:15:25.860Z,2.3
2022-10-19T10:18:20.192Z,2.5
2022-10-19T10:21:09.876Z,2.5
2022-10-19T10:23:59.745Z,2.8
2022-10-19T10:26:51.515Z,1.8
2022-10-19T10:29:41.576Z,1.9
2022-10-19T10:32:43.272Z,2.2
2022-10-19T10:35:34.956Z,1.8
2022-10-19T10:38:22.465Z,1.6
2022-10-19T10:41:12.029Z,1.6
2022-10-19T10:44:04.770Z,1.6
2022-10-19T10:47:01.576Z,1.8
2022-10-19T10:49:57.897Z,1.2
2022-10-19T10:52:51.082Z,1.4
2022-10-19T10:55:44.582Z,1.7
2022-10-19T10:58:41.618Z,1.4
2022-10-19T11:01:35.322Z,1.3
2022-10-19T11:04:27.268Z,1.4
2022-10-19T11:07:21.494Z,1.8
2022-10-19T11:10:11.230Z,1.7
2022-10-19T11:13:09.876Z,1.5
2022-10-19T11:16:02.679Z,1.6
2022-10-19T11:18:58.209Z,1.5
2022-10-19T11:21:55.145Z,2.1
2022-10-19T11:24:49.955Z,1.5
2022-10-19T11:27:50.312Z,1.6
2022-10-19T11:30:50.673Z,1.9
2022-10-19T11:33:47.586Z,1.9
2022-10-19T11:36:40.589Z,1.2
2022-10-19T11:39:37.093Z,2
2022-10-19T11:42:38.983Z,1.9
2022-10-19T11:45:37.135Z,1.4
2022-10-19T11:48:39.306Z,4.5
2022-10-19T11:51:51.314Z,1.4
2022-10-19T11:54:46.245Z,1.3
2022-10-19T11:57:48.190Z,1.3
2022-10-19T12:00:42.405Z,1.7
2022-10-19T12:03:36.785Z,1.2
2022-10-19T12:06:41.146Z,1.8
2022-10-19T12:09:36.499Z,1.4
2022-10-19T12:12:33.441Z,1.6
2022-10-19T12:15:25.254Z,1.3
2022-10-19T12:18:17.195Z,1.5
2022-10-19T12:21:19.113Z,1.7
2022-10-19T12:24:11.250Z,1.1
2022-10-19T12:27:02.018Z,1.2
2022-10-19T12:29:50.197Z,1.6
2022-10-19T12:32:38.795Z,1.7
2022-10-19T12:35:36.873Z,2
2022-10-19T12:38:40.856Z,1.9
2022-10-19T12:41:42.135Z,1.4
2022-10-19T12:44:37.010Z,1.7
2022-10-19T12:47:52.899Z,1.7
2022-10-19T12:51:12.405Z,1.8
2022-10-19T12:54:02.085Z,1.6
2022-10-19T12:56:55.175Z,1.7
2022-10-19T12:59:45.344Z,1.4
2022-10-19T13:02:45.173Z,1.8
2022-10-19T13:05:41.102Z,1.7
2022-10-19T13:08:41.311Z,1.6
2022-10-19T13:11:32.882Z,1.7
2022-10-19T13:14:22.884Z,1.7
2022-10-19T13:17:42.663Z,1.3
2022-10-19T13:20:30.966Z,1.4
2022-10-19T13:23:38.281Z,1.6
2022-10-19T13:26:26.741Z,1.3
2022-10-19T13:29:18.469Z,1.6
2022-10-19T13:32:10.899Z,1.4
2022-10-19T13:35:30.725Z,1.1
2022-10-19T13:38:20.096Z,1.2
2022-10-19T13:41:14.005Z,1
2022-10-19T13:44:06.288Z,1.4
2022-10-19T13:47:09.568Z,1.6
2022-10-19T13:50:32.166Z,1.5
2022-10-19T13:53:25.814Z,1.5
2022-10-19T13:56:26.643Z,2.3
2022-10-19T14:02:57.332Z,1.7
2022-10-19T14:05:55.769Z,1.5
2022-10-19T14:08:57.276Z,1.2
2022-10-19T14:12:09.968Z,1
2022-10-19T14:15:05.836Z,1.2
2022-10-19T14:18:19.151Z,1.5
2022-10-19T14:21:09.890Z,1.3
2022-10-19T14:24:13.459Z,1.4
2022-10-19T14:27:15.133Z,1.3
2022-10-19T14:30:08.203Z,1.5
2022-10-19T14:33:07.839Z,0.9
2022-10-19T14:36:02.477Z,1.2
2022-10-19T14:38:52.505Z,1.4
2022-10-19T14:41:41.193Z,1.1
2022-10-19T14:44:30.161Z,3
2022-10-19T14:47:24.356Z,2
2022-10-19T14:50:11.902Z,2.3
2022-10-19T14:52:59.353Z,2.2
2022-10-19T14:55:54.506Z,2
2022-10-19T14:58:46.706Z,2.4
2022-10-19T15:01:38.638Z,2.1
2022-10-19T15:04:34.970Z,2.2
2022-10-19T15:07:29.461Z,2.1
2022-10-19T15:10:23.182Z,2.4
2022-10-19T15:13:13.408Z,2.3
2022-10-19T15:16:08.687Z,2.2
2022-10-19T15:19:15.155Z,2.7
2022-10-19T15:22:08.451Z,1.8
2022-10-19T15:25:02.004Z,2.2
2022-10-19T15:28:15.675Z,1.8
2022-10-19T15:31:06.431Z,1.9
2022-10-19T15:34:01.411Z,2.1
2022-10-19T15:36:50.286Z,2.4
2022-10-19T15:39:45.750Z,3.3
2022-10-19T15:42:36.397Z,2.7
2022-10-19T15:45:28.879Z,3.1
2022-10-19T15:48:19.737Z,3.9
2022-10-19T15:51:13.733Z,4.1
2022-10-19T15:54:22.437Z,5.7
2022-10-19T15:57:09.914Z,8.7
2022-10-19T16:00:10.179Z,7.9
2022-10-19T16:03:00.131Z,7.8
2022-10-19T16:05:47.713Z,7.3
2022-10-19T16:08:35.090Z,6.8
2022-10-19T16:11:22.659Z,6.5
2022-10-19T16:14:11.671Z,6.1
2022-10-19T16:17:00.097Z,7
2022-10-19T16:19:48.956Z,6.8
2022-10-19T16:22:36.604Z,7
2022-10-19T16:25:24.159Z,9.7
2022-10-19T16:28:11.481Z,12.2
2022-10-19T16:30:58.836Z,27.3
2022-10-19T16:33:46.455Z,39.3
2022-10-19T16:36:33.823Z,40.1
2022-10-19T16:39:21.638Z,28.8
2022-10-19T16:42:10.182Z,21.7
2022-10-19T16:44:57.563Z,14.3
2022-10-19T16:47:45.178Z,12
2022-10-19T16:50:34.921Z,10
2022-10-19T16:53:22.261Z,8.8
2022-10-19T16:56:09.632Z,6.6
2022-10-19T16:58:58.152Z,5.5
2022-10-19T17:01:47.529Z,5.4
2022-10-19T17:04:34.885Z,5.2
2022-10-19T17:07:22.568Z,5.6
2022-10-19T17:10:10.095Z,4.2
2022-10-19T17:12:57.617Z,4.4
2022-10-19T17:15:44.885Z,4.5
2022-10-19T17:18:32.389Z,5.3
2022-10-19T17:21:20.148Z,5.8
2022-10-19T17:24:10.204Z,6.8
2022-10-19T17:27:00.335Z,6.6
2022-10-19T17:29:47.752Z,6.8
2022-10-19T17:32:35.671Z,7.3
2022-10-19T17:35:23.263Z,7.8
2022-10-19T17:38:10.608Z,6.7
2022-10-19T17:40:58.068Z,6.8
2022-10-19T17:43:51.378Z,6.7
2022-10-19T17:46:39.176Z,6.8
2022-10-19T17:49:27.148Z,8
2022-10-19T17:52:14.448Z,7.3
2022-10-19T17:55:12.060Z,7.6
2022-10-19T17:58:00.399Z,7.7
2022-10-19T18:00:47.769Z,8.4
2022-10-19T18:03:40.172Z,9.4
2022-10-19T18:06:27.812Z,9.5
2022-10-19T18:09:17.299Z,11.4
2022-10-19T18:12:04.927Z,13.8
2022-10-19T18:14:57.936Z,12.7
2022-10-19T18:17:45.394Z,12.7
2022-10-19T18:20:32.692Z,13
2022-10-19T18:23:24.119Z,11.3
2022-10-19T18:26:11.476Z,12.1
2022-10-19T18:29:01.490Z,10.2
2022-10-19T18:31:56.904Z,10.1
2022-10-19T18:34:45.909Z,10
2022-10-19T18:37:33.397Z,11.5
2022-10-19T18:40:20.813Z,11.7
2022-10-19T18:43:08.192Z,10.8
2022-10-19T18:45:55.597Z,12.4
2022-10-19T18:48:44.719Z,11.8
2022-10-19T18:51:32.439Z,10.4
2022-10-19T18:54:20.366Z,9
2022-10-19T18:57:07.856Z,7.2
2022-10-19T18:59:55.439Z,5.8
2022-10-19T19:02:46.953Z,6.2
2022-10-19T19:05:39.690Z,5.3
2022-10-19T19:08:27.159Z,4.2
2022-10-19T19:11:15.193Z,5.7
2022-10-19T19:14:05.024Z,4.8
2022-10-19T19:16:57.657Z,5.9
2022-10-19T19:19:44.918Z,5.6
2022-10-19T19:22:32.437Z,5
2022-10-19T19:25:20.570Z,4.8
2022-10-19T19:28:08.010Z,5.5
2022-10-19T19:30:55.379Z,5.3
2022-10-19T19:33:42.760Z,5.1
2022-10-19T19:36:31.556Z,5.9
2022-10-19T19:39:18.981Z,5.1
2022-10-19T19:42:06.781Z,5.2
2022-10-19T19:44:54.695Z,6
2022-10-19T19:47:42.023Z,5.7
2022-10-19T19:50:29.633Z,6.2
2022-10-19T19:53:17.795Z,5.8
2022-10-19T19:56:05.574Z,7
2022-10-19T19:58:56.161Z,6.8
2022-10-19T20:01:45.335Z,7.8
2022-10-19T20:04:32.774Z,7
2022-10-19T20:07:20.297Z,7
2022-10-19T20:10:08.013Z,6.2
2022-10-19T20:12:55.628Z,6
2022-10-19T20:15:43.137Z,5.9
2022-10-19T20:18:30.441Z,5.5
2022-10-19T20:21:17.676Z,6.3
2022-10-19T20:24:08.448Z,4.9
2022-10-19T20:26:56.377Z,6.1
2022-10-19T20:29:43.664Z,5.3
2022-10-19T20:32:30.896Z,6.3
2022-10-19T20:35:18.296Z,6.9
2022-10-19T20:38:05.840Z,7.6
2022-10-19T20:40:54.570Z,7.5
2022-10-19T20:43:41.928Z,7.7
2022-10-19T20:46:29.236Z,7.2
2022-10-19T20:49:16.655Z,7.4
2022-10-19T20:52:04.088Z,7.6
2022-10-19T20:54:52.505Z,7
2022-10-19T20:57:39.994Z,7
2022-10-19T21:00:27.276Z,6.1
2022-10-19T21:03:14.655Z,7.5
2022-10-19T21:06:01.872Z,7.1
2022-10-19T21:08:50.524Z,6.5
2022-10-19T21:11:38.256Z,6.4
2022-10-19T21:14:28.881Z,6.6
2022-10-19T21:17:16.539Z,6.4
2022-10-19T21:20:04.101Z,6.9
2022-10-19T21:22:53.543Z,6.9
2022-10-19T21:25:40.792Z,5.8
2022-10-19T21:28:38.797Z,5.8
2022-10-19T21:31:31.372Z,5
2022-10-19T21:34:18.650Z,6.3
2022-10-19T21:37:08.746Z,5.8
2022-10-19T21:39:56.199Z,6.5
2022-10-19T21:42:43.446Z,5.5
2022-10-19T21:45:31.074Z,6.8
2022-10-19T21:48:22.670Z,6.3
2022-10-19T21:51:09.913Z,5.6
2022-10-19T21:54:06.007Z,5.3
2022-10-19T21:56:57.146Z,5.3
2022-10-19T21:59:46.160Z,4.5
2022-10-19T22:02:34.155Z,5.1
2022-10-19T22:05:21.427Z,4.9
2022-10-19T22:08:08.710Z,4.9
2022-10-19T22:10:56.416Z,5.5
2022-10-19T22:13:43.940Z,5.8
2022-10-19T22:16:31.947Z,7.3
2022-10-19T22:19:21.202Z,8.7
2022-10-19T22:22:10.774Z,11.1
2022-10-19T22:24:57.971Z,15.2
2022-10-19T22:27:45.307Z,14
2022-10-19T22:30:32.654Z,10.3
2022-10-19T22:33:19.960Z,11.4
2022-10-19T22:36:08.366Z,8.7
2022-10-19T22:38:57.701Z,10.3
2022-10-19T22:41:45.126Z,9.8
2022-10-19T22:44:32.536Z,9.3
2022-10-19T22:47:19.850Z,9.4
2022-10-19T22:50:08.112Z,12
2022-10-19T22:52:56.360Z,11.1
2022-10-19T22:55:43.645Z,12.4
2022-10-19T22:58:30.998Z,15.4
2022-10-19T23:01:18.397Z,11.2
2022-10-19T23:04:06.234Z,12
2022-10-19T23:06:54.809Z,9.6
2022-10-19T23:09:42.093Z,9
2022-10-19T23:12:29.585Z,7.8
2022-10-19T23:15:16.888Z,8.4
2022-10-19T23:18:04.920Z,8.2
2022-10-19T23:20:52.847Z,8.4
2022-10-19T23:23:41.830Z,9.3
2022-10-19T23:26:29.260Z,8.4
2022-10-19T23:29:16.772Z,8.7
2022-10-19T23:32:04.124Z,8.5
2022-10-19T23:34:51.720Z,7.2
2022-10-19T23:37:39.037Z,9.4
2022-10-19T23:40:26.333Z,8.8
2022-10-19T23:43:13.625Z,8.5
2022-10-19T23:46:00.929Z,6.4
2022-10-19T23:48:48.581Z,8.3
2022-10-19T23:51:36.133Z,8.2
2022-10-19T23:54:23.417Z,8.3
2022-10-19T23:57:10.815Z,8.3
2022-10-19T23:59:58.062Z,7.9
